createdAt,value
2018-08-17T00:01:21.040Z,934.88
2018-08-17T00:02:52.544Z,934.85
2018-08-17T00:04:24.198Z,934.83
2018-08-17T00:05:55.660Z,934.82
2018-08-17T00:07:27.229Z,934.86
2018-08-17T00:08:58.798Z,934.90
2018-08-17T00:10:30.646Z,934.93
2018-08-17T00:12:01.943Z,934.96
2018-08-17T00:13:33.507Z,934.94
2018-08-17T00:15:05.074Z,934.96
2018-08-17T00:16:36.749Z,934.96
2018-08-17T00:18:08.211Z,934.92
2018-08-17T00:19:39.780Z,934.91
2018-08-17T00:21:11.351Z,934.96
2018-08-17T00:22:43.017Z,934.94
2018-08-17T00:24:14.487Z,934.96
2018-08-17T00:25:46.126Z,934.97
2018-08-17T00:27:18.104Z,934.93
2018-08-17T00:28:49.443Z,934.88
2018-08-17T00:30:20.792Z,934.91
2018-08-17T00:31:52.335Z,934.90
2018-08-17T00:33:23.906Z,934.94
2018-08-17T00:34:55.668Z,934.95
2018-08-17T00:36:27.036Z,934.98
2018-08-17T00:37:58.606Z,934.97
2018-08-17T00:39:30.175Z,935.01
2018-08-17T00:41:01.843Z,935.06
2018-08-17T00:42:33.312Z,935.10
2018-08-17T00:44:04.877Z,935.11
2018-08-17T00:45:36.446Z,935.15
2018-08-17T00:47:08.215Z,935.15
2018-08-17T00:48:39.588Z,935.09
2018-08-17T00:50:11.155Z,935.13
2018-08-17T00:51:42.722Z,935.16
2018-08-17T00:53:14.391Z,935.15
2018-08-17T00:54:45.861Z,935.23
2018-08-17T00:56:17.428Z,935.27
2018-08-17T00:57:48.998Z,935.31
2018-08-17T00:59:20.666Z,935.31
2018-08-17T01:00:52.135Z,935.37
2018-08-17T01:02:23.704Z,935.41
2018-08-17T01:03:55.273Z,935.45
2018-08-17T01:05:27.044Z,935.43
2018-08-17T01:06:58.411Z,935.51
2018-08-17T01:08:29.980Z,935.51
2018-08-17T01:10:01.551Z,935.56
2018-08-17T01:11:33.220Z,935.54
2018-08-17T01:13:04.686Z,935.55
2018-08-17T01:14:36.256Z,935.49
2018-08-17T01:16:07.825Z,935.53
2018-08-17T01:17:39.494Z,935.50
2018-08-17T01:19:11.264Z,935.49
2018-08-17T01:20:42.531Z,935.53
2018-08-17T01:22:14.104Z,935.52
2018-08-17T01:23:45.671Z,935.52
2018-08-17T01:25:17.339Z,935.49
2018-08-17T01:26:48.811Z,935.51
2018-08-17T01:28:20.381Z,935.52
2018-08-17T01:29:51.947Z,935.51
2018-08-17T01:31:23.615Z,935.48
2018-08-17T01:32:55.084Z,935.48
2018-08-17T01:34:26.652Z,935.41
2018-08-17T01:35:58.222Z,935.38
2018-08-17T01:37:29.990Z,935.33
2018-08-17T01:39:01.359Z,935.35
2018-08-17T01:40:32.927Z,935.37
2018-08-17T01:42:04.499Z,935.31
2018-08-17T01:43:36.165Z,935.28
2018-08-17T01:45:07.634Z,935.32
2018-08-17T01:46:39.203Z,935.32
2018-08-17T01:48:10.772Z,935.32
2018-08-17T01:49:42.593Z,935.36
2018-08-17T01:51:13.909Z,935.34
2018-08-17T01:52:45.478Z,935.39
2018-08-17T01:54:17.047Z,935.35
2018-08-17T01:55:48.816Z,935.39
2018-08-17T01:57:20.185Z,935.40
2018-08-17T01:58:51.753Z,935.38
2018-08-17T02:00:23.322Z,935.35
2018-08-17T02:01:54.991Z,935.35
2018-08-17T02:03:26.459Z,935.36
2018-08-17T02:04:58.028Z,935.34
2018-08-17T02:06:29.596Z,935.33
2018-08-17T02:08:01.265Z,935.35
2018-08-17T02:09:32.734Z,935.38
2018-08-17T02:11:04.302Z,935.43
2018-08-17T02:12:35.871Z,935.45
2018-08-17T02:14:07.640Z,935.47
2018-08-17T02:15:39.013Z,935.52
2018-08-17T02:17:10.578Z,935.47
2018-08-17T02:18:42.145Z,935.52
2018-08-17T02:20:13.814Z,935.46
2018-08-17T02:21:45.282Z,935.48
2018-08-17T02:23:16.851Z,935.47
2018-08-17T02:24:48.420Z,935.44
2018-08-17T02:26:20.089Z,935.41
2018-08-17T02:27:52.008Z,935.41
2018-08-17T02:29:23.129Z,935.40
2018-08-17T02:30:54.694Z,935.39
2018-08-17T02:32:26.516Z,935.43
2018-08-17T02:33:57.831Z,935.43
2018-08-17T02:35:29.402Z,935.47
2018-08-17T02:37:00.969Z,935.44
2018-08-17T02:38:32.637Z,935.49
2018-08-17T02:40:04.106Z,935.50
2018-08-17T02:41:35.676Z,935.46
2018-08-17T02:43:07.243Z,935.50
2018-08-17T02:44:38.913Z,935.43
2018-08-17T02:46:10.392Z,935.44
2018-08-17T02:47:41.949Z,935.38
2018-08-17T02:49:13.515Z,935.35
2018-08-17T02:50:45.436Z,935.39
2018-08-17T02:52:16.652Z,935.38
2018-08-17T02:53:48.221Z,935.36
2018-08-17T02:55:19.789Z,935.32
2018-08-17T02:56:51.458Z,935.23
2018-08-17T02:58:22.926Z,935.17
2018-08-17T02:59:54.494Z,935.15
2018-08-17T03:01:26.064Z,935.15
2018-08-17T03:02:57.700Z,935.12
2018-08-17T03:04:29.200Z,935.10
2018-08-17T03:06:00.770Z,935.11
2018-08-17T03:07:32.336Z,935.15
2018-08-17T03:09:04.107Z,935.17
2018-08-17T03:10:35.475Z,935.10
2018-08-17T03:12:07.043Z,935.15
2018-08-17T03:13:38.609Z,935.11
2018-08-17T03:15:10.278Z,935.13
2018-08-17T03:16:41.746Z,935.07
2018-08-17T03:18:13.315Z,935.08
2018-08-17T03:19:44.883Z,935.07
2018-08-17T03:21:16.702Z,935.12
2018-08-17T03:22:48.020Z,935.10
2018-08-17T03:24:19.591Z,935.10
2018-08-17T03:25:51.156Z,935.06
2018-08-17T03:27:22.976Z,935.10
2018-08-17T03:28:54.293Z,935.08
2018-08-17T03:30:25.862Z,935.09
2018-08-17T03:31:57.430Z,935.14
2018-08-17T03:33:29.198Z,935.11
2018-08-17T03:35:00.566Z,935.11
2018-08-17T03:36:32.139Z,935.12
2018-08-17T03:38:03.750Z,935.10
2018-08-17T03:39:35.371Z,935.15
2018-08-17T03:41:06.844Z,935.19
2018-08-17T03:42:38.407Z,935.22
2018-08-17T03:44:09.977Z,935.22
2018-08-17T03:45:41.798Z,935.22
2018-08-17T03:47:13.115Z,935.25
2018-08-17T03:48:44.682Z,935.28
2018-08-17T03:50:16.250Z,935.28
2018-08-17T03:51:48.069Z,935.25
2018-08-17T03:53:19.387Z,935.17
2018-08-17T03:54:50.956Z,935.12
2018-08-17T03:56:22.524Z,935.14
2018-08-17T03:57:54.194Z,935.12
2018-08-17T03:59:25.661Z,935.16
2018-08-17T04:00:57.229Z,935.19
2018-08-17T04:02:28.799Z,935.14
2018-08-17T04:04:00.617Z,935.11
2018-08-17T04:05:31.935Z,935.24
2018-08-17T04:07:03.503Z,935.25
2018-08-17T04:08:35.074Z,935.21
2018-08-17T04:10:06.741Z,935.22
2018-08-17T04:11:38.209Z,935.14
2018-08-17T04:13:09.778Z,935.15
2018-08-17T04:14:41.345Z,935.06
2018-08-17T04:16:12.914Z,935.02
2018-08-17T04:17:44.484Z,935.01
2018-08-17T04:19:16.052Z,935.08
2018-08-17T04:20:47.621Z,935.06
2018-08-17T04:22:19.440Z,935.09
2018-08-17T04:23:50.806Z,935.10
2018-08-17T04:25:22.327Z,935.14
2018-08-17T04:26:53.899Z,935.16
2018-08-17T04:28:25.466Z,935.16
2018-08-17T04:29:57.083Z,935.16
2018-08-17T04:31:28.602Z,935.16
2018-08-17T04:33:00.169Z,935.16
2018-08-17T04:34:31.838Z,935.17
2018-08-17T04:36:03.306Z,935.21
2018-08-17T04:37:34.877Z,935.27
2018-08-17T04:39:06.443Z,935.22
2018-08-17T04:40:38.262Z,935.25
2018-08-17T04:42:09.584Z,935.27
2018-08-17T04:43:41.166Z,935.25
2018-08-17T04:45:12.721Z,935.29
2018-08-17T04:46:44.385Z,935.27
2018-08-17T04:48:15.854Z,935.26
2018-08-17T04:49:47.422Z,935.27
2018-08-17T04:51:18.991Z,935.18
2018-08-17T04:52:50.810Z,935.23
2018-08-17T04:54:22.128Z,935.17
2018-08-17T04:55:53.697Z,935.19
2018-08-17T04:57:25.265Z,935.20
2018-08-17T04:58:56.933Z,935.19
2018-08-17T05:00:28.401Z,935.18
2018-08-17T05:01:59.973Z,935.16
2018-08-17T05:03:31.596Z,935.20
2018-08-17T05:05:03.106Z,935.17
2018-08-17T05:06:34.674Z,935.17
2018-08-17T05:08:06.251Z,935.16
2018-08-17T05:09:37.813Z,935.16
2018-08-17T05:11:09.380Z,935.12
2018-08-17T05:12:40.948Z,935.17
2018-08-17T05:14:12.517Z,935.16
2018-08-17T05:15:44.085Z,935.08
2018-08-17T05:17:15.803Z,935.15
2018-08-17T05:18:47.223Z,935.14
2018-08-17T05:20:18.790Z,935.07
2018-08-17T05:21:50.360Z,935.08
2018-08-17T05:23:22.104Z,935.12
2018-08-17T05:24:53.495Z,935.10
2018-08-17T05:26:25.067Z,935.14
2018-08-17T05:27:56.633Z,935.07
2018-08-17T05:29:28.200Z,935.07
2018-08-17T05:30:59.771Z,935.06
2018-08-17T05:32:31.336Z,935.05
2018-08-17T05:34:02.905Z,935.03
2018-08-17T05:35:34.575Z,935.04
2018-08-17T05:37:06.042Z,934.98
2018-08-17T05:38:37.610Z,934.97
2018-08-17T05:40:09.180Z,935.01
2018-08-17T05:41:40.747Z,934.97
2018-08-17T05:43:12.315Z,934.94
2018-08-17T05:44:43.886Z,934.99
2018-08-17T05:46:15.453Z,934.97
2018-08-17T05:47:47.019Z,934.92
2018-08-17T05:49:18.589Z,934.92
2018-08-17T05:50:50.156Z,934.92
2018-08-17T05:52:21.725Z,934.94
2018-08-17T05:53:53.647Z,934.91
2018-08-17T05:55:24.862Z,934.91
2018-08-17T05:56:56.433Z,934.88
2018-08-17T05:58:27.998Z,934.87
2018-08-17T05:59:59.667Z,934.89
2018-08-17T06:01:31.135Z,934.90
2018-08-17T06:03:02.704Z,934.85
2018-08-17T06:04:34.272Z,934.86
2018-08-17T06:06:05.840Z,934.87
2018-08-17T06:07:37.409Z,934.90
2018-08-17T06:09:08.976Z,934.91
2018-08-17T06:10:40.560Z,934.89
2018-08-17T06:12:12.216Z,934.86
2018-08-17T06:13:43.682Z,934.85
2018-08-17T06:15:15.257Z,934.87
2018-08-17T06:16:46.818Z,934.86
2018-08-17T06:18:18.386Z,934.89
2018-08-17T06:19:49.955Z,934.89
2018-08-17T06:21:21.522Z,934.91
2018-08-17T06:22:53.091Z,934.86
2018-08-17T06:24:24.760Z,934.81
2018-08-17T06:25:56.227Z,934.81
2018-08-17T06:27:28.196Z,934.76
2018-08-17T06:28:59.363Z,934.76
2018-08-17T06:30:31.033Z,934.76
2018-08-17T06:32:02.500Z,934.76
2018-08-17T06:33:34.068Z,934.71
2018-08-17T06:35:05.636Z,934.74
2018-08-17T06:36:37.204Z,934.71
2018-08-17T06:38:08.772Z,934.69
2018-08-17T06:39:40.340Z,934.69
2018-08-17T06:41:11.909Z,934.66
2018-08-17T06:42:43.477Z,934.67
2018-08-17T06:44:15.045Z,934.62
2018-08-17T06:45:46.614Z,934.66
2018-08-17T06:47:18.182Z,934.62
2018-08-17T06:48:49.852Z,934.64
2018-08-17T06:50:21.319Z,934.64
2018-08-17T06:51:52.889Z,934.70
2018-08-17T06:53:24.455Z,934.64
2018-08-17T06:54:56.273Z,934.58
2018-08-17T06:56:27.592Z,934.60
2018-08-17T06:57:59.160Z,934.61
2018-08-17T06:59:30.728Z,934.57
2018-08-17T07:01:02.396Z,934.55
2018-08-17T07:02:33.901Z,934.52
2018-08-17T07:04:05.432Z,934.57
2018-08-17T07:05:37.001Z,934.55
2018-08-17T07:07:08.670Z,934.56
2018-08-17T07:08:40.205Z,934.56
2018-08-17T07:10:11.706Z,934.62
2018-08-17T07:11:43.275Z,934.61
2018-08-17T07:13:14.951Z,934.61
2018-08-17T07:14:46.411Z,934.64
2018-08-17T07:16:17.979Z,934.67
2018-08-17T07:17:49.547Z,934.62
2018-08-17T07:19:21.116Z,934.62
2018-08-17T07:20:52.684Z,934.59
2018-08-17T07:22:24.255Z,934.68
2018-08-17T07:23:55.820Z,934.61
2018-08-17T07:25:27.740Z,934.62
2018-08-17T07:26:58.957Z,934.60
2018-08-17T07:28:30.526Z,934.58
2018-08-17T07:30:02.097Z,934.57
2018-08-17T07:31:33.820Z,934.55
2018-08-17T07:33:05.232Z,934.58
2018-08-17T07:34:36.800Z,934.58
2018-08-17T07:36:08.368Z,934.60
2018-08-17T07:37:40.040Z,934.64
2018-08-17T07:39:11.505Z,934.66
2018-08-17T07:40:43.073Z,934.67
2018-08-17T07:42:14.642Z,934.63
2018-08-17T07:43:46.464Z,934.57
2018-08-17T07:45:17.779Z,934.59
2018-08-17T07:46:49.347Z,934.59
2018-08-17T07:48:21.088Z,934.59
2018-08-17T07:49:52.485Z,934.58
2018-08-17T07:51:24.053Z,934.56
2018-08-17T07:52:55.620Z,934.62
2018-08-17T07:54:27.191Z,934.62
2018-08-17T07:55:58.858Z,934.63
2018-08-17T07:57:30.327Z,934.65
2018-08-17T07:59:01.942Z,934.64
2018-08-17T08:00:33.464Z,934.64
2018-08-17T08:02:05.283Z,934.67
2018-08-17T08:03:36.600Z,934.70
2018-08-17T08:05:08.173Z,934.73
2018-08-17T08:06:39.736Z,934.69
2018-08-17T08:08:11.304Z,934.69
2018-08-17T08:09:42.873Z,934.71
2018-08-17T08:11:14.459Z,934.73
2018-08-17T08:12:46.010Z,934.66
2018-08-17T08:14:17.578Z,934.69
2018-08-17T08:15:49.148Z,934.70
2018-08-17T08:17:20.716Z,934.72
2018-08-17T08:18:52.288Z,934.71
2018-08-17T08:20:24.132Z,934.69
2018-08-17T08:21:55.420Z,934.78
2018-08-17T08:23:26.989Z,934.78
2018-08-17T08:24:58.557Z,934.78
2018-08-17T08:26:30.228Z,934.82
2018-08-17T08:28:01.693Z,934.80
2018-08-17T08:29:33.264Z,934.80
2018-08-17T08:31:04.831Z,934.80
2018-08-17T08:32:36.554Z,934.82
2018-08-17T08:34:07.968Z,934.81
2018-08-17T08:35:39.536Z,934.85
2018-08-17T08:37:11.104Z,934.87
2018-08-17T08:38:42.773Z,934.84
2018-08-17T08:40:14.241Z,934.81
2018-08-17T08:41:45.813Z,934.82
2018-08-17T08:43:17.378Z,934.83
2018-08-17T08:44:48.947Z,934.89
2018-08-17T08:46:20.515Z,934.89
2018-08-17T08:47:52.084Z,934.89
2018-08-17T08:49:23.652Z,934.86
2018-08-17T08:50:55.221Z,934.82
2018-08-17T08:52:26.789Z,934.85
2018-08-17T08:53:58.358Z,934.83
2018-08-17T08:55:29.925Z,934.82
2018-08-17T08:57:01.745Z,934.76
2018-08-17T08:58:33.063Z,934.82
2018-08-17T09:00:04.632Z,934.80
2018-08-17T09:01:36.205Z,934.79
2018-08-17T09:03:07.768Z,934.82
2018-08-17T09:04:39.336Z,934.83
2018-08-17T09:06:10.904Z,934.81
2018-08-17T09:07:42.473Z,934.85
2018-08-17T09:09:14.042Z,934.81
2018-08-17T09:10:45.612Z,934.80
2018-08-17T09:12:17.179Z,934.80
2018-08-17T09:13:48.780Z,934.82
2018-08-17T09:15:20.466Z,934.84
2018-08-17T09:16:51.883Z,934.86
2018-08-17T09:18:23.452Z,934.87
2018-08-17T09:19:55.020Z,934.88
2018-08-17T09:21:26.589Z,934.82
2018-08-17T09:22:58.157Z,934.86
2018-08-17T09:24:29.733Z,934.84
2018-08-17T09:26:01.294Z,934.88
2018-08-17T09:27:32.864Z,934.91
2018-08-17T09:29:04.438Z,934.96
2018-08-17T09:30:36.001Z,934.92
2018-08-17T09:32:07.631Z,934.96
2018-08-17T09:33:39.352Z,934.99
2018-08-17T09:35:10.706Z,935.00
2018-08-17T09:36:42.318Z,935.01
2018-08-17T09:38:13.945Z,935.06
2018-08-17T09:39:45.542Z,935.06
2018-08-17T09:41:17.079Z,935.04
2018-08-17T09:42:48.601Z,935.07
2018-08-17T09:44:20.467Z,935.05
2018-08-17T09:45:51.821Z,935.07
2018-08-17T09:48:54.825Z,935.16
2018-08-17T09:50:26.393Z,935.14
2018-08-17T09:51:58.364Z,935.14
2018-08-17T09:53:29.637Z,935.18
2018-08-17T09:55:01.145Z,935.18
2018-08-17T09:56:32.669Z,935.14
2018-08-17T09:58:04.387Z,935.15
2018-08-17T09:59:35.882Z,935.18
2018-08-17T10:01:07.961Z,935.20
2018-08-17T10:02:38.980Z,935.21
2018-08-17T10:04:10.571Z,935.20
2018-08-17T10:05:42.089Z,935.24
2018-08-17T10:07:13.862Z,935.30
2018-08-17T10:08:45.258Z,935.31
2018-08-17T10:10:16.891Z,935.28
2018-08-17T10:11:48.476Z,935.31
2018-08-17T10:13:19.958Z,935.28
2018-08-17T10:14:51.810Z,935.31
2018-08-17T10:16:23.114Z,935.35
2018-08-17T10:17:54.642Z,935.38
2018-08-17T10:19:26.239Z,935.37
2018-08-17T10:20:58.328Z,935.42
2018-08-17T10:22:30.251Z,935.44
2018-08-17T10:24:01.542Z,935.45
2018-08-17T10:25:33.130Z,935.48
2018-08-17T10:27:04.507Z,935.52
2018-08-17T10:28:36.253Z,935.49
2018-08-17T10:30:07.485Z,935.44
2018-08-17T10:31:39.284Z,935.49
2018-08-17T10:33:10.780Z,935.48
2018-08-17T10:37:45.129Z,935.60
2018-08-17T10:39:16.727Z,935.57
2018-08-17T10:40:48.295Z,935.59
2018-08-17T10:42:20.015Z,935.58
2018-08-17T10:43:52.364Z,935.59
2018-08-17T10:45:22.886Z,935.64
2018-08-17T10:46:54.994Z,935.66
2018-08-17T10:48:26.015Z,935.66
2018-08-17T10:49:57.980Z,935.70
2018-08-17T10:51:29.799Z,935.73
2018-08-17T10:53:01.792Z,935.78
2018-08-17T10:54:32.540Z,935.73
2018-08-17T10:56:04.354Z,935.76
2018-08-17T10:57:35.735Z,935.70
2018-08-17T10:59:07.137Z,935.70
2018-08-17T11:00:38.947Z,935.75
2018-08-17T11:02:11.928Z,935.75
2018-08-17T11:03:42.198Z,935.79
2018-08-17T11:05:13.353Z,935.80
2018-08-17T11:06:45.032Z,935.79
2018-08-17T11:09:48.513Z,935.87
2018-08-17T11:11:19.877Z,935.91
2018-08-17T11:12:52.271Z,935.87
2018-08-17T11:14:22.897Z,935.97
2018-08-17T11:15:55.403Z,936.02
2018-08-17T11:17:26.152Z,935.98
2018-08-17T11:18:57.711Z,935.98
2018-08-17T11:20:29.965Z,936.05
2018-08-17T11:22:02.369Z,935.99
2018-08-17T11:23:32.113Z,935.99
2018-08-17T11:25:03.684Z,936.02
2018-08-17T11:26:35.360Z,936.06
2018-08-17T11:28:09.249Z,936.07
2018-08-17T11:29:40.690Z,936.08
2018-08-17T11:31:11.607Z,936.15
2018-08-17T11:32:44.024Z,936.16
2018-08-17T11:34:14.740Z,936.15
2018-08-17T11:35:46.646Z,936.28
2018-08-17T11:37:18.108Z,936.28
2018-08-17T11:38:48.564Z,936.26
2018-08-17T11:41:51.261Z,936.31
2018-08-17T11:43:24.060Z,936.33
2018-08-17T11:44:55.372Z,936.32
2018-08-17T11:46:26.441Z,936.47
2018-08-17T11:47:58.292Z,936.40
2018-08-17T11:49:30.639Z,936.33
2018-08-17T11:51:01.247Z,936.41
2018-08-17T11:52:32.794Z,936.41
2018-08-17T11:54:05.463Z,936.38
2018-08-17T11:55:36.226Z,936.28
2018-08-17T11:57:08.489Z,936.43
2018-08-17T11:58:39.220Z,936.51
2018-08-17T12:00:11.100Z,936.44
2018-08-17T12:01:42.053Z,936.44
2018-08-17T12:03:13.342Z,936.55
2018-08-17T12:04:45.242Z,936.53
2018-08-17T12:06:16.927Z,936.62
2018-08-17T12:07:48.479Z,936.58
2018-08-17T12:09:20.610Z,936.61
2018-08-17T12:12:22.979Z,936.59
2018-08-17T12:13:54.927Z,936.60
2018-08-17T12:15:26.157Z,936.60
2018-08-17T12:16:57.332Z,936.64
2018-08-17T12:18:28.936Z,936.59
2018-08-17T12:20:00.558Z,936.63
2018-08-17T12:21:32.262Z,936.67
2018-08-17T12:23:04.230Z,936.74
2018-08-17T12:24:35.544Z,936.63
2018-08-17T12:26:06.862Z,936.80
2018-08-17T12:29:09.961Z,936.78
2018-08-17T12:30:41.810Z,936.86
2018-08-17T12:32:13.734Z,936.94
2018-08-17T12:33:45.836Z,936.83
2018-08-17T12:35:17.104Z,936.78
2018-08-17T12:36:48.791Z,936.81
2018-08-17T12:38:19.709Z,936.89
2018-08-17T12:39:51.210Z,937.01
2018-08-17T12:41:22.896Z,936.94
2018-08-17T12:42:56.438Z,936.79
2018-08-17T12:44:26.902Z,936.94
2018-08-17T12:45:57.937Z,936.94
2018-08-17T12:47:29.731Z,936.87
2018-08-17T12:49:00.678Z,936.86
2018-08-17T12:50:32.108Z,936.90
2018-08-17T12:52:04.385Z,936.85
2018-08-17T12:53:37.407Z,936.86
2018-08-17T12:55:08.022Z,936.88
2018-08-17T12:56:39.463Z,936.96
2018-08-17T12:58:10.028Z,936.95
2018-08-17T12:59:41.495Z,936.99
2018-08-17T13:01:13.365Z,937.03
2018-08-17T13:02:44.317Z,936.95
2018-08-17T13:04:17.265Z,937.04
2018-08-17T13:05:48.627Z,937.12
2018-08-17T13:07:19.881Z,937.16
2018-08-17T13:08:53.178Z,937.06
2018-08-17T13:10:25.567Z,937.09
2018-08-17T13:11:54.388Z,937.13
2018-08-17T13:13:26.574Z,937.12
2018-08-17T13:14:58.658Z,937.08
2018-08-17T13:16:29.392Z,937.13
2018-08-17T13:18:01.269Z,937.09
2018-08-17T13:19:33.850Z,937.18
2018-08-17T13:21:05.198Z,937.04
2018-08-17T13:22:35.806Z,937.15
2018-08-17T13:24:07.523Z,937.11
2018-08-17T13:25:39.575Z,937.20
2018-08-17T13:27:10.703Z,937.08
2018-08-17T13:28:41.790Z,937.05
2018-08-17T13:30:14.624Z,937.03
2018-08-17T13:31:46.290Z,937.01
2018-08-17T13:33:18.422Z,937.00
2018-08-17T13:34:52.251Z,936.88
2018-08-17T13:36:21.038Z,937.03
2018-08-17T13:37:52.564Z,937.00
2018-08-17T13:39:25.194Z,936.86
2018-08-17T13:40:59.274Z,936.90
2018-08-17T13:42:28.606Z,936.95
2018-08-17T13:43:59.709Z,936.96
2018-08-17T13:45:31.709Z,936.97
2018-08-17T13:47:03.637Z,936.87
2018-08-17T13:48:33.597Z,936.85
2018-08-17T13:50:04.843Z,936.85
2018-08-17T13:51:36.226Z,936.94
2018-08-17T13:53:09.523Z,936.98
2018-08-17T13:54:41.622Z,936.89
2018-08-17T13:56:11.918Z,936.78
2018-08-17T13:57:43.366Z,936.85
2018-08-17T13:59:14.312Z,936.80
2018-08-17T14:00:45.642Z,937.00
2018-08-17T14:02:17.351Z,936.91
2018-08-17T14:03:48.546Z,937.00
2018-08-17T14:05:20.171Z,937.07
2018-08-17T14:06:51.885Z,936.86
2018-08-17T14:08:23.570Z,936.97
2018-08-17T14:09:55.651Z,936.97
2018-08-17T14:11:26.668Z,937.18
2018-08-17T14:12:57.675Z,937.13
2018-08-17T14:14:28.992Z,936.93
2018-08-17T14:16:00.387Z,936.95
2018-08-17T14:17:31.816Z,936.93
2018-08-17T14:19:03.116Z,936.89
2018-08-17T14:20:35.590Z,936.85
2018-08-17T14:22:07.247Z,936.93
2018-08-17T14:23:38.731Z,936.97
2018-08-17T14:25:10.082Z,936.99
2018-08-17T14:26:43.042Z,937.04
2018-08-17T14:28:14.406Z,936.69
2018-08-17T14:29:44.951Z,936.63
2018-08-17T14:31:17.385Z,936.75
2018-08-17T14:32:48.549Z,936.69
2018-08-17T14:34:19.858Z,936.68
2018-08-17T14:35:51.670Z,936.67
2018-08-17T14:37:21.898Z,936.63
2018-08-17T14:38:55.674Z,936.53
2018-08-17T14:40:26.700Z,936.59
2018-08-17T14:41:57.556Z,936.63
2018-08-17T14:43:29.109Z,936.61
2018-08-17T14:45:00.816Z,936.82
2018-08-17T14:46:34.651Z,936.81
2018-08-17T14:48:06.654Z,936.63
2018-08-17T14:49:35.477Z,936.51
2018-08-17T14:51:07.406Z,936.54
2018-08-17T14:52:38.418Z,936.64
2018-08-17T14:54:10.050Z,936.52
2018-08-17T14:55:41.278Z,936.47
2018-08-17T14:57:13.219Z,936.58
2018-08-17T14:58:44.986Z,936.51
2018-08-17T15:00:16.156Z,936.47
2018-08-17T15:01:48.174Z,936.37
2018-08-17T15:03:19.967Z,936.39
2018-08-17T15:04:51.100Z,936.32
2018-08-17T15:06:22.812Z,936.27
2018-08-17T15:07:53.533Z,936.24
2018-08-17T15:09:25.180Z,936.26
2018-08-17T15:10:56.684Z,936.24
2018-08-17T15:12:28.653Z,936.34
2018-08-17T15:14:01.916Z,936.34
2018-08-17T15:15:33.086Z,936.27
2018-08-17T15:17:04.205Z,936.24
2018-08-17T15:18:36.159Z,936.13
2018-08-17T15:20:07.401Z,936.14
2018-08-17T15:21:39.247Z,936.20
2018-08-17T15:23:10.235Z,936.15
2018-08-17T15:24:42.166Z,936.22
2018-08-17T15:26:13.747Z,936.17
2018-08-17T15:27:45.480Z,936.10
2018-08-17T15:29:16.895Z,936.07
2018-08-17T15:30:49.399Z,936.00
2018-08-17T15:32:20.265Z,936.01
2018-08-17T15:33:52.819Z,936.02
2018-08-17T15:35:24.252Z,935.94
2018-08-17T15:36:54.723Z,935.99
2018-08-17T15:38:26.237Z,936.07
2018-08-17T15:39:58.837Z,936.03
2018-08-17T15:41:30.115Z,935.96
2018-08-17T15:43:02.059Z,936.04
2018-08-17T15:44:32.793Z,936.15
2018-08-17T15:46:05.532Z,936.11
2018-08-17T15:47:36.587Z,935.93
2018-08-17T15:49:07.427Z,935.79
2018-08-17T15:50:38.607Z,935.87
2018-08-17T15:52:11.154Z,936.04
2018-08-17T15:53:42.235Z,935.84
2018-08-17T15:55:13.476Z,935.97
2018-08-17T15:56:45.507Z,935.94
2018-08-17T15:58:16.981Z,935.79
2018-08-17T15:59:49.170Z,936.01
2018-08-17T16:01:19.769Z,935.88
2018-08-17T16:02:50.714Z,936.00
2018-08-17T16:04:23.763Z,936.03
2018-08-17T16:05:54.327Z,936.03
2018-08-17T16:07:25.870Z,935.91
2018-08-17T16:08:58.404Z,935.77
2018-08-17T16:10:29.486Z,935.46
2018-08-17T16:11:59.934Z,935.35
2018-08-17T16:13:31.589Z,935.28
2018-08-17T16:15:02.506Z,935.25
2018-08-17T16:16:34.880Z,935.18
2018-08-17T16:18:06.728Z,935.19
2018-08-17T16:19:37.783Z,935.12
2018-08-17T16:21:09.711Z,935.13
2018-08-17T16:22:41.649Z,935.12
2018-08-17T16:24:12.455Z,935.04
2018-08-17T16:25:43.407Z,935.11
2018-08-17T16:27:15.846Z,935.09
2018-08-17T16:28:46.964Z,935.17
2018-08-17T16:30:18.860Z,935.09
2018-08-17T16:31:50.366Z,935.19
2018-08-17T16:33:21.488Z,935.16
2018-08-17T16:34:54.471Z,935.20
2018-08-17T16:36:25.630Z,935.36
2018-08-17T16:37:56.335Z,935.31
2018-08-17T16:39:28.422Z,935.35
2018-08-17T16:41:02.020Z,935.31
2018-08-17T16:42:30.980Z,935.27
2018-08-17T16:44:03.345Z,935.21
2018-08-17T16:45:34.425Z,935.30
2018-08-17T16:47:06.160Z,935.27
2018-08-17T16:48:37.365Z,935.16
2018-08-17T16:50:09.188Z,935.32
2018-08-17T16:51:41.403Z,935.51
2018-08-17T16:53:13.293Z,935.45
2018-08-17T16:54:44.992Z,935.36
2018-08-17T16:56:17.976Z,935.21
2018-08-17T16:57:49.900Z,935.37
2018-08-17T16:59:20.249Z,935.23
2018-08-17T17:00:51.300Z,935.30
2018-08-17T17:02:22.899Z,935.20
2018-08-17T17:03:55.089Z,935.31
2018-08-17T17:05:26.550Z,935.22
2018-08-17T17:06:58.292Z,935.11
2018-08-17T17:08:28.956Z,935.10
2018-08-17T17:10:01.896Z,935.16
2018-08-17T17:11:32.442Z,934.99
2018-08-17T17:13:05.010Z,934.96
2018-08-17T17:14:36.039Z,934.93
2018-08-17T17:16:07.123Z,934.74
2018-08-17T17:17:38.731Z,934.88
2018-08-17T17:19:10.575Z,934.75
2018-08-17T17:20:42.875Z,934.97
2018-08-17T17:22:13.425Z,934.79
2018-08-17T17:23:45.030Z,934.91
2018-08-17T17:25:16.695Z,934.82
2018-08-17T17:26:48.588Z,934.93
2018-08-17T17:28:18.806Z,934.68
2018-08-17T17:29:50.198Z,934.67
2018-08-17T17:31:22.012Z,934.64
2018-08-17T17:32:53.990Z,934.58
2018-08-17T17:34:25.005Z,934.60
2018-08-17T17:35:56.685Z,934.58
2018-08-17T17:37:28.546Z,934.67
2018-08-17T17:38:59.714Z,934.64
2018-08-17T17:40:31.653Z,934.62
2018-08-17T17:42:02.627Z,934.58
2018-08-17T17:43:35.593Z,934.71
2018-08-17T17:45:05.701Z,934.83
2018-08-17T17:46:37.267Z,934.69
2018-08-17T17:48:10.195Z,934.78
2018-08-17T17:49:41.053Z,934.59
2018-08-17T17:51:12.736Z,934.64
2018-08-17T17:52:43.993Z,934.45
2018-08-17T17:54:17.313Z,934.42
2018-08-17T17:55:47.013Z,934.50
2018-08-17T17:57:19.959Z,934.59
2018-08-17T17:58:51.156Z,934.53
2018-08-17T18:00:22.593Z,934.51
2018-08-17T18:01:53.966Z,934.49
2018-08-17T18:03:24.478Z,934.67
2018-08-17T18:04:56.106Z,934.45
2018-08-17T18:06:27.692Z,934.40
2018-08-17T18:07:59.424Z,934.49
2018-08-17T18:11:02.172Z,934.42
2018-08-17T18:12:33.958Z,934.51
2018-08-17T18:14:05.592Z,934.47
2018-08-17T18:15:37.390Z,934.34
2018-08-17T18:17:08.761Z,934.54
2018-08-17T18:18:41.255Z,934.43
2018-08-17T18:20:11.747Z,934.24
2018-08-17T18:21:43.196Z,934.40
2018-08-17T18:23:14.942Z,934.37
2018-08-17T18:24:46.534Z,934.41
2018-08-17T18:26:19.437Z,934.46
2018-08-17T18:27:49.780Z,934.53
2018-08-17T18:30:52.736Z,934.57
2018-08-17T18:32:24.203Z,934.52
2018-08-17T18:33:55.977Z,934.40
2018-08-17T18:36:59.294Z,934.33
2018-08-17T18:38:30.524Z,934.37
2018-08-17T18:40:02.723Z,934.40
2018-08-17T18:41:33.652Z,934.58
2018-08-17T18:43:05.781Z,934.40
2018-08-17T18:44:37.156Z,934.40
2018-08-17T18:46:08.578Z,934.41
2018-08-17T18:47:39.950Z,934.41
2018-08-17T18:50:43.200Z,934.39
2018-08-17T18:52:14.703Z,934.52
2018-08-17T18:53:46.549Z,934.34
2018-08-17T18:55:17.820Z,934.34
2018-08-17T18:56:50.050Z,934.32
2018-08-17T18:58:20.967Z,934.36
2018-08-17T19:01:24.116Z,934.28
2018-08-17T19:02:56.247Z,934.31
2018-08-17T19:04:27.464Z,934.26
2018-08-17T19:05:59.489Z,934.26
2018-08-17T19:07:30.713Z,934.24
2018-08-17T19:09:02.081Z,934.30
2018-08-17T19:10:33.646Z,934.36
2018-08-17T19:12:05.431Z,934.18
2018-08-17T19:15:08.386Z,934.14
2018-08-17T19:16:40.049Z,934.11
2018-08-17T19:18:11.733Z,934.13
2018-08-17T19:19:43.004Z,934.05
2018-08-17T19:21:14.946Z,934.17
2018-08-17T19:22:46.209Z,934.10